Time;durP1;ratioP1;P1;durP2;ratioP2;P2;SDS_P1;SDS_P2;PMS_P1;PMS_P2;Temp;Humidity;BMP_temperature;BMP_pressure;BME280_temperature;BME280_humidity;BME280_pressure;Samples;Min_cycle;Max_cycle;Signal;HPM_P1;HPM_P2
2023/05/25 00:02:03;;;;;;;26.83;8.77;;;9.40;99.90;;;;;;5008176;28;20445;-56
2023/05/25 00:04:35;;;;;;;22.30;8.83;;;9.40;99.90;;;;;;5012950;28;20195;-56
2023/05/25 00:07:01;;;;;;;19.17;8.20;;;9.40;99.90;;;;;;5005926;28;20498;-56
2023/05/25 00:09:27;;;;;;;20.03;8.37;;;9.30;99.90;;;;;;5005758;28;20435;-55
2023/05/25 00:11:53;;;;;;;20.17;8.87;;;9.30;99.90;;;;;;5010822;28;20938;-56
2023/05/25 00:14:19;;;;;;;15.40;9.23;;;9.30;99.90;;;;;;5014683;28;20651;-56
2023/05/25 00:16:47;;;;;;;24.30;8.80;;;9.30;99.90;;;;;;5015587;28;20196;-56
2023/05/25 00:19:13;;;;;;;21.23;9.30;;;9.30;99.90;;;;;;5010333;28;20945;-56
2023/05/25 00:21:40;;;;;;;25.57;9.50;;;9.30;99.90;;;;;;5003865;28;20782;-56
2023/05/25 00:24:06;;;;;;;26.43;9.50;;;9.30;99.90;;;;;;5003756;28;20841;-56
2023/05/25 00:26:32;;;;;;;22.53;10.47;;;9.20;99.90;;;;;;5005497;28;20435;-56
2023/05/25 00:28:59;;;;;;;23.23;10.57;;;9.20;99.90;;;;;;5005013;28;20510;-57
2023/05/25 00:31:26;;;;;;;35.33;11.50;;;9.20;99.90;;;;;;5010585;28;20443;-56
2023/05/25 00:33:51;;;;;;;30.13;10.80;;;9.20;99.90;;;;;;5011785;28;20485;-56
2023/05/25 00:36:17;;;;;;;30.33;11.87;;;9.20;99.90;;;;;;5011113;28;20580;-56
2023/05/25 00:38:43;;;;;;;23.43;11.33;;;9.20;99.90;;;;;;4998669;28;20196;-56
2023/05/25 00:41:08;;;;;;;30.63;11.23;;;9.20;99.90;;;;;;5007100;28;20259;-55
2023/05/25 00:43:34;;;;;;;20.70;9.50;;;9.20;99.90;;;;;;5007763;28;20663;-55
2023/05/25 00:46:01;;;;;;;27.17;11.20;;;9.20;99.90;;;;;;5005879;28;20187;-55
2023/05/25 00:48:27;;;;;;;26.57;10.47;;;9.20;99.90;;;;;;5010881;28;20846;-56
2023/05/25 00:50:58;;;;;;;30.00;10.47;;;9.20;99.90;;;;;;5004132;28;20442;-55
2023/05/25 00:53:24;;;;;;;28.37;11.10;;;9.20;99.90;;;;;;5006751;28;20781;-55
2023/05/25 00:56:11;;;;;;;33.40;11.33;;;9.20;99.90;;;;;;4990234;28;21059;-55
2023/05/25 00:58:39;;;;;;;23.07;10.60;;;9.10;99.90;;;;;;4986617;28;20551;-56
2023/05/25 01:01:10;;;;;;;21.40;10.40;;;9.10;99.90;;;;;;4982659;28;20456;-55
2023/05/25 01:03:36;;;;;;;27.50;11.30;;;9.10;99.90;;;;;;4990229;28;20439;-55
2023/05/25 01:06:06;;;;;;;33.90;11.87;;;9.10;99.90;;;;;;4983242;28;20441;-55
2023/05/25 01:08:34;;;;;;;28.27;11.50;;;9.10;99.90;;;;;;4985961;28;21009;-55
2023/05/25 01:11:03;;;;;;;24.13;12.53;;;9.10;99.90;;;;;;4986335;28;20460;-55
2023/05/25 01:13:30;;;;;;;24.70;10.90;;;9.10;99.90;;;;;;4987898;28;20522;-56
2023/05/25 01:15:56;;;;;;;35.90;12.87;;;9.10;99.90;;;;;;4989686;28;20432;-55
2023/05/25 01:18:22;;;;;;;25.47;11.90;;;9.00;99.90;;;;;;4984955;28;20519;-54
2023/05/25 01:21:13;;;;;;;39.50;12.23;;;9.10;99.90;;;;;;4990899;28;20532;-56
2023/05/25 01:23:49;;;;;;;27.30;12.73;;;9.00;99.90;;;;;;4985541;28;20197;-55
2023/05/25 01:26:19;;;;;;;31.60;12.83;;;9.00;99.90;;;;;;4990549;28;20434;-55
2023/05/25 01:28:49;;;;;;;34.00;12.67;;;9.00;99.90;;;;;;4978789;28;20476;-55
2023/05/25 01:31:20;;;;;;;33.10;13.60;;;9.00;99.90;;;;;;4981381;28;20948;-55
2023/05/25 01:33:48;;;;;;;28.47;12.10;;;9.00;99.90;;;;;;4984374;28;20460;-55
2023/05/25 01:36:14;;;;;;;30.93;13.47;;;9.00;99.90;;;;;;4977544;28;20793;-55
2023/05/25 01:38:40;;;;;;;34.80;14.10;;;9.00;99.90;;;;;;4984515;28;21103;-55
2023/05/25 01:41:06;;;;;;;29.57;13.77;;;9.00;99.90;;;;;;4984665;28;20546;-55
2023/05/25 01:43:31;;;;;;;31.20;13.40;;;9.00;99.90;;;;;;4986056;28;20441;-55
2023/05/25 01:46:10;;;;;;;35.87;14.50;;;9.00;99.90;;;;;;4999195;28;20192;-55
2023/05/25 01:49:15;;;;;;;27.23;13.20;;;9.00;99.90;;;;;;5003149;28;20601;-55
2023/05/25 01:52:10;;;;;;;44.20;14.17;;;8.90;99.90;;;;;;4993973;28;20422;-55
2023/05/25 01:54:39;;;;;;;39.57;14.43;;;8.90;99.90;;;;;;4982737;28;20531;-55
2023/05/25 01:57:09;;;;;;;38.60;14.60;;;8.90;99.90;;;;;;4999699;28;20832;-55
2023/05/25 01:59:36;;;;;;;32.33;15.07;;;8.90;99.90;;;;;;5002975;28;20862;-56
2023/05/25 02:02:04;;;;;;;25.37;13.97;;;8.90;99.90;;;;;;5007932;28;20789;-54
2023/05/25 02:04:30;;;;;;;42.83;16.53;;;8.90;99.90;;;;;;5008028;28;20843;-54
2023/05/25 02:06:56;;;;;;;43.60;16.70;;;8.90;99.90;;;;;;5009697;28;20465;-54
2023/05/25 02:09:21;;;;;;;32.97;15.10;;;8.80;99.90;;;;;;5005999;28;20185;-54
2023/05/25 02:11:48;;;;;;;35.53;15.60;;;8.80;99.90;;;;;;5014951;28;20180;-56
2023/05/25 02:14:14;;;;;;;30.97;15.40;;;8.80;99.90;;;;;;5008807;28;20211;-55
2023/05/25 02:16:40;;;;;;;39.80;15.80;;;8.80;99.90;;;;;;5006939;28;20918;-54
2023/05/25 02:19:06;;;;;;;30.37;16.13;;;8.80;99.90;;;;;;5006595;28;20490;-55
2023/05/25 02:21:31;;;;;;;26.80;15.10;;;8.80;99.90;;;;;;5001895;28;20195;-54
2023/05/25 02:23:57;;;;;;;44.77;16.63;;;8.70;99.90;;;;;;5004423;28;20191;-54
2023/05/25 02:26:23;;;;;;;33.90;16.83;;;8.80;99.90;;;;;;5004370;28;20188;-55
2023/05/25 02:28:50;;;;;;;38.00;17.47;;;8.80;99.90;;;;;;5009057;28;20663;-54
2023/05/25 02:31:16;;;;;;;33.17;16.77;;;8.80;99.90;;;;;;5002610;28;20647;-55
2023/05/25 02:33:41;;;;;;;46.57;18.33;;;8.80;99.90;;;;;;5005025;28;20521;-54
2023/05/25 02:36:07;;;;;;;34.67;16.10;;;8.80;99.90;;;;;;5005393;28;20594;-54
2023/05/25 02:38:33;;;;;;;38.37;15.90;;;8.80;99.90;;;;;;5008498;28;20295;-54
2023/05/25 02:40:58;;;;;;;31.67;15.40;;;8.70;99.90;;;;;;5007480;28;20189;-54
2023/05/25 02:43:24;;;;;;;34.67;15.27;;;8.70;99.90;;;;;;5006718;28;20211;-54
2023/05/25 02:45:50;;;;;;;43.33;16.67;;;8.70;99.90;;;;;;5008701;28;20187;-55
2023/05/25 02:48:15;;;;;;;34.93;15.80;;;8.70;99.90;;;;;;5004253;28;20220;-54
2023/05/25 02:50:41;;;;;;;29.77;15.70;;;8.60;99.90;;;;;;5003681;28;20189;-54
2023/05/25 02:53:06;;;;;;;51.77;16.70;;;8.60;99.90;;;;;;5006428;28;20542;-54
2023/05/25 02:55:32;;;;;;;38.80;16.60;;;8.60;99.90;;;;;;4999720;28;20235;-54
2023/05/25 02:57:59;;;;;;;35.60;16.60;;;8.60;99.90;;;;;;5005768;28;20203;-54
2023/05/25 03:00:25;;;;;;;37.47;16.67;;;8.60;99.90;;;;;;5003131;28;20203;-53
2023/05/25 03:02:51;;;;;;;38.67;16.33;;;8.70;99.90;;;;;;5003592;28;20464;-54
2023/05/25 03:05:17;;;;;;;41.07;16.20;;;8.70;99.90;;;;;;5007168;28;20260;-53
2023/05/25 03:07:42;;;;;;;37.17;15.40;;;8.70;99.90;;;;;;5007840;28;20483;-54
2023/05/25 03:10:10;;;;;;;33.30;16.90;;;8.70;99.90;;;;;;5009615;28;20192;-54
2023/05/25 03:12:36;;;;;;;32.97;16.27;;;8.70;99.90;;;;;;5004575;28;20204;-54
2023/05/25 03:15:01;;;;;;;43.83;17.50;;;8.80;99.90;;;;;;5012028;28;20446;-54
2023/05/25 03:17:27;;;;;;;31.77;15.77;;;8.80;99.90;;;;;;5008642;28;20193;-53
2023/05/25 03:19:52;;;;;;;41.10;16.37;;;8.90;99.90;;;;;;5009285;28;20179;-54
2023/05/25 03:22:18;;;;;;;47.07;16.20;;;8.90;99.90;;;;;;5011476;28;20192;-54
2023/05/25 03:24:43;;;;;;;37.70;16.30;;;8.90;99.90;;;;;;5004760;28;20215;-53
2023/05/25 03:27:09;;;;;;;33.13;16.20;;;8.90;99.90;;;;;;5003191;28;20580;-53
2023/05/25 03:29:34;;;;;;;39.93;14.83;;;8.90;99.90;;;;;;5006609;28;20220;-54
2023/05/25 03:32:00;;;;;;;36.10;14.70;;;8.90;99.90;;;;;;5015829;28;20242;-54
2023/05/25 03:34:26;;;;;;;28.10;15.00;;;8.90;99.90;;;;;;5003862;28;20188;-54
2023/05/25 03:36:53;;;;;;;30.13;14.23;;;9.00;99.90;;;;;;5003939;28;20266;-54
2023/05/25 03:39:20;;;;;;;33.00;13.53;;;8.90;99.90;;;;;;5011148;28;20522;-53
2023/05/25 03:41:46;;;;;;;37.67;15.00;;;8.90;99.90;;;;;;5004144;28;20444;-54
2023/05/25 03:44:12;;;;;;;32.57;13.00;;;8.90;99.90;;;;;;5007537;28;21002;-54
2023/05/25 03:46:38;;;;;;;30.90;14.10;;;8.90;99.90;;;;;;5004893;28;20279;-54
2023/05/25 03:49:04;;;;;;;31.87;12.93;;;8.90;99.90;;;;;;5009999;28;20215;-54
2023/05/25 03:51:30;;;;;;;27.73;13.13;;;8.90;99.90;;;;;;5008186;28;20193;-53
2023/05/25 03:53:55;;;;;;;39.77;13.80;;;8.90;99.90;;;;;;5005387;28;21001;-53
2023/05/25 03:56:22;;;;;;;28.00;13.53;;;8.90;99.90;;;;;;5009427;28;20228;-53
2023/05/25 03:58:47;;;;;;;28.10;13.70;;;8.90;99.90;;;;;;5003089;28;20670;-54
2023/05/25 04:01:13;;;;;;;31.93;14.80;;;8.90;99.90;;;;;;5003680;28;20446;-54
2023/05/25 04:03:39;;;;;;;36.90;14.60;;;9.10;99.90;;;;;;5004923;28;20821;-54
2023/05/25 04:06:05;;;;;;;36.00;14.30;;;9.10;99.90;;;;;;5007530;28;20179;-54
2023/05/25 04:08:30;;;;;;;32.70;13.20;;;9.20;99.90;;;;;;5005375;28;20278;-54
2023/05/25 04:10:56;;;;;;;34.07;14.10;;;9.20;99.90;;;;;;5004619;28;20214;-54
2023/05/25 04:13:22;;;;;;;39.37;14.57;;;9.20;99.90;;;;;;5013898;28;20188;-55
2023/05/25 04:15:49;;;;;;;35.97;14.00;;;9.20;99.90;;;;;;5001130;28;20200;-55
2023/05/25 04:18:15;;;;;;;29.40;12.57;;;9.30;99.90;;;;;;5007518;28;20443;-53
2023/05/25 04:20:40;;;;;;;25.43;12.70;;;9.30;99.90;;;;;;5009249;28;20443;-54
2023/05/25 04:23:06;;;;;;;32.27;13.93;;;9.30;99.90;;;;;;5006312;28;20184;-54
2023/05/25 04:25:31;;;;;;;29.10;12.60;;;9.30;99.90;;;;;;5006148;28;20181;-55
2023/05/25 04:27:57;;;;;;;21.33;13.07;;;9.40;99.90;;;;;;5005857;28;20326;-55
2023/05/25 04:30:23;;;;;;;31.20;13.63;;;9.40;99.90;;;;;;5008620;28;20188;-54
2023/05/25 04:32:49;;;;;;;20.20;11.13;;;9.50;99.90;;;;;;5010742;28;20234;-55
2023/05/25 04:35:15;;;;;;;24.20;11.27;;;9.60;99.90;;;;;;5009695;28;20730;-54
2023/05/25 04:37:41;;;;;;;29.30;12.70;;;9.70;99.90;;;;;;5003546;28;20433;-55
2023/05/25 04:40:12;;;;;;;20.93;11.87;;;9.80;99.90;;;;;;5007890;28;20445;-56
2023/05/25 04:42:38;;;;;;;28.77;11.33;;;9.90;99.90;;;;;;5002907;28;20243;-55
2023/05/25 04:45:05;;;;;;;24.33;11.87;;;9.90;99.90;;;;;;5005499;28;20450;-56
2023/05/25 04:47:31;;;;;;;22.87;10.80;;;10.00;99.90;;;;;;5009186;28;20557;-53
2023/05/25 04:49:57;;;;;;;23.40;11.23;;;10.20;99.90;;;;;;5008044;28;20486;-55
2023/05/25 04:52:22;;;;;;;19.57;10.40;;;10.30;99.90;;;;;;5009093;28;20188;-55
2023/05/25 04:54:48;;;;;;;22.53;9.60;;;10.40;99.90;;;;;;5002011;28;20196;-55
2023/05/25 04:57:13;;;;;;;23.63;10.63;;;10.40;99.90;;;;;;5001205;28;20246;-55
2023/05/25 04:59:39;;;;;;;21.90;9.70;;;10.40;99.90;;;;;;5012158;28;20185;-56
2023/05/25 05:02:05;;;;;;;26.67;9.63;;;10.30;99.90;;;;;;5006475;28;20192;-55
2023/05/25 05:04:30;;;;;;;16.03;8.83;;;10.30;99.90;;;;;;5003887;28;20449;-55
2023/05/25 05:06:56;;;;;;;16.97;9.20;;;10.30;99.90;;;;;;5008332;28;20516;-55
2023/05/25 05:09:22;;;;;;;21.53;9.20;;;10.50;99.90;;;;;;5011393;28;20337;-55
2023/05/25 05:11:47;;;;;;;20.07;8.53;;;10.40;99.90;;;;;;5009205;28;20191;-55
2023/05/25 05:14:13;;;;;;;16.13;7.97;;;10.40;99.90;;;;;;5005754;28;20635;-56
2023/05/25 05:16:38;;;;;;;23.10;9.70;;;10.60;99.90;;;;;;5008444;28;20177;-56
2023/05/25 05:19:04;;;;;;;21.67;9.30;;;10.80;99.90;;;;;;5000761;28;20186;-57
2023/05/25 05:21:29;;;;;;;18.97;9.20;;;11.00;99.90;;;;;;5008372;28;20267;-57
2023/05/25 05:23:55;;;;;;;19.73;8.93;;;11.10;99.90;;;;;;5006042;28;20187;-56
2023/05/25 05:26:21;;;;;;;18.43;9.10;;;11.30;99.90;;;;;;5012074;28;20238;-56
2023/05/25 05:28:47;;;;;;;18.47;8.03;;;11.50;99.90;;;;;;5005922;28;20228;-56
2023/05/25 05:31:16;;;;;;;20.80;7.50;;;11.70;99.90;;;;;;5007482;28;20431;-56
2023/05/25 05:33:41;;;;;;;23.20;7.37;;;11.70;1.00;;;;;;5000387;28;20447;-57
2023/05/25 05:36:08;;;;;;;12.17;7.30;;;11.80;1.00;;;;;;5004664;28;20449;-57
2023/05/25 05:38:33;;;;;;;18.83;6.83;;;12.00;1.00;;;;;;5006551;28;21119;-58
2023/05/25 05:41:00;;;;;;;20.90;7.47;;;12.10;1.00;;;;;;5001969;28;20923;-57
2023/05/25 05:43:25;;;;;;;25.20;7.60;;;12.30;99.90;;;;;;5005034;28;20678;-57
2023/05/25 05:45:51;;;;;;;26.13;7.00;;;12.40;99.90;;;;;;5001321;28;20526;-58
2023/05/25 05:48:16;;;;;;;21.20;6.77;;;12.50;99.90;;;;;;5003907;28;20310;-57
2023/05/25 05:50:42;;;;;;;18.60;6.87;;;12.50;1.00;;;;;;5003909;28;20180;-58
2023/05/25 05:53:08;;;;;;;23.10;7.20;;;12.70;1.00;;;;;;5007137;28;20184;-56
2023/05/25 05:55:34;;;;;;;23.27;6.60;;;12.70;99.90;;;;;;5005283;28;20324;-58
2023/05/25 05:58:00;;;;;;;22.70;6.83;;;12.80;99.90;;;;;;5007647;28;20875;-58
2023/05/25 06:00:25;;;;;;;16.40;6.13;;;12.90;47.40;;;;;;5002402;28;20180;-59
2023/05/25 06:02:51;;;;;;;15.40;5.93;;;13.00;1.00;;;;;;5002406;28;20227;-58
2023/05/25 06:05:17;;;;;;;19.13;6.37;;;13.20;1.00;;;;;;5007331;28;20184;-59
2023/05/25 06:07:43;;;;;;;16.23;5.70;;;13.30;99.90;;;;;;5002399;28;20262;-58
2023/05/25 06:10:08;;;;;;;19.83;6.20;;;13.30;1.00;;;;;;5004898;28;20459;-57
2023/05/25 06:12:34;;;;;;;19.63;6.00;;;13.40;1.00;;;;;;5005390;28;20203;-58
2023/05/25 06:15:00;;;;;;;20.17;5.97;;;13.60;1.00;;;;;;5008655;28;20212;-58
2023/05/25 06:17:27;;;;;;;21.20;5.97;;;13.70;99.90;;;;;;5006669;28;20577;-59
2023/05/25 06:19:52;;;;;;;15.37;6.00;;;14.00;66.30;;;;;;5001193;28;20271;-58
2023/05/25 06:22:18;;;;;;;18.20;6.17;;;14.30;14.30;;;;;;5005679;28;21015;-58
2023/05/25 06:24:44;;;;;;;23.70;6.83;;;14.40;1.00;;;;;;5004779;28;20185;-58
2023/05/25 06:27:09;;;;;;;24.40;5.60;;;14.50;1.00;;;;;;5000064;28;20183;-59
2023/05/25 06:29:35;;;;;;;21.10;5.90;;;14.60;1.00;;;;;;5001500;28;20191;-59
2023/05/25 06:32:00;;;;;;;13.13;5.40;;;14.50;1.00;;;;;;5002248;28;20580;-59
2023/05/25 06:34:26;;;;;;;21.63;5.40;;;14.60;1.00;;;;;;4999868;28;20191;-58
2023/05/25 06:36:52;;;;;;;22.30;5.77;;;14.80;1.00;;;;;;5004379;28;20628;-59
2023/05/25 06:39:18;;;;;;;19.13;5.57;;;14.80;1.00;;;;;;5009499;28;20189;-60
2023/05/25 06:41:43;;;;;;;23.00;6.03;;;15.00;1.00;;;;;;5005054;28;21959;-61
2023/05/25 06:44:09;;;;;;;27.47;5.70;;;15.20;1.00;;;;;;5009107;28;21046;-59
2023/05/25 06:46:35;;;;;;;20.20;6.17;;;15.40;1.00;;;;;;5005631;28;20210;-60
2023/05/25 06:49:02;;;;;;;16.47;4.80;;;15.50;1.00;;;;;;5007240;28;20711;-57
2023/05/25 06:51:28;;;;;;;19.83;5.07;;;15.60;1.00;;;;;;5004948;28;20449;-60
2023/05/25 06:53:56;;;;;;;23.30;5.40;;;15.70;1.00;;;;;;5010576;28;20945;-59
2023/05/25 06:56:22;;;;;;;18.90;5.43;;;15.60;1.00;;;;;;5005503;28;20256;-58
2023/05/25 06:58:48;;;;;;;24.27;5.67;;;15.70;1.00;;;;;;5008792;28;20786;-59
2023/05/25 07:01:15;;;;;;;16.90;5.23;;;15.70;1.00;;;;;;5010233;28;20989;-59
2023/05/25 07:03:41;;;;;;;18.40;5.20;;;15.80;1.00;;;;;;5006207;28;20433;-61
2023/05/25 07:06:07;;;;;;;27.47;5.70;;;15.80;1.00;;;;;;5005162;28;20427;-61
2023/05/25 07:08:33;;;;;;;20.80;5.03;;;15.60;1.00;;;;;;5006698;28;20872;-59
2023/05/25 07:10:58;;;;;;;22.23;5.50;;;15.70;1.00;;;;;;5014473;28;20443;-60
2023/05/25 07:13:24;;;;;;;17.27;4.87;;;15.90;1.00;;;;;;5011707;28;20228;-59
2023/05/25 07:15:51;;;;;;;25.47;6.20;;;16.10;1.00;;;;;;5010688;28;20193;-61
2023/05/25 07:18:17;;;;;;;20.87;5.80;;;16.50;1.00;;;;;;5010915;28;20654;-58
2023/05/25 07:20:43;;;;;;;20.97;5.97;;;17.00;1.00;;;;;;5001853;28;20446;-60
2023/05/25 07:23:12;;;;;;;21.37;5.20;;;17.40;1.00;;;;;;5009759;28;20178;-59
2023/05/25 07:25:39;;;;;;;17.33;4.87;;;17.50;1.00;;;;;;5006533;28;20434;-60
2023/05/25 07:28:05;;;;;;;22.90;5.57;;;17.80;1.00;;;;;;5008110;28;20508;-61
2023/05/25 07:30:30;;;;;;;15.47;5.27;;;18.10;1.00;;;;;;5006368;28;20446;-61
2023/05/25 07:32:57;;;;;;;16.00;5.20;;;18.10;1.00;;;;;;5004438;28;20721;-60
2023/05/25 07:35:23;;;;;;;23.87;5.03;;;17.60;1.00;;;;;;5007780;28;20237;-59
2023/05/25 07:37:57;;;;;;;28.40;5.30;;;17.10;1.00;;;;;;5002596;28;20529;-60
2023/05/25 07:40:22;;;;;;;18.97;5.83;;;17.40;1.00;;;;;;5004448;28;20514;-61
2023/05/25 07:42:48;;;;;;;20.43;5.00;;;17.50;1.00;;;;;;5014986;28;20472;-61
2023/05/25 07:45:14;;;;;;;15.73;5.03;;;17.60;1.00;;;;;;5007060;28;20211;-60
2023/05/25 07:47:40;;;;;;;17.20;5.10;;;18.00;1.00;;;;;;5012979;28;20630;-60
2023/05/25 07:50:06;;;;;;;20.57;4.80;;;18.10;1.00;;;;;;5003537;28;20509;-60
2023/05/25 07:52:31;;;;;;;22.17;5.67;;;18.50;1.00;;;;;;5005739;28;20237;-59
2023/05/25 07:54:57;;;;;;;19.10;4.83;;;18.70;1.00;;;;;;5003687;28;20442;-59
2023/05/25 07:57:24;;;;;;;18.23;4.90;;;19.00;1.00;;;;;;4986485;28;20218;-60
2023/05/25 07:59:49;;;;;;;16.60;4.80;;;19.20;1.00;;;;;;4985948;28;20202;-60
2023/05/25 08:02:15;;;;;;;14.20;4.80;;;18.90;1.00;;;;;;4987605;28;20443;-59
2023/05/25 08:04:41;;;;;;;17.30;5.07;;;18.80;1.00;;;;;;4987140;28;20270;-58
2023/05/25 08:07:06;;;;;;;22.97;5.50;;;18.50;1.00;;;;;;4984518;28;20235;-60
2023/05/25 08:09:32;;;;;;;23.43;5.70;;;18.10;1.00;;;;;;4986632;28;20193;-57
2023/05/25 08:11:58;;;;;;;14.90;5.00;;;18.00;1.00;;;;;;4984398;28;20193;-60
2023/05/25 08:14:24;;;;;;;23.83;5.90;;;18.10;1.00;;;;;;4985842;28;20193;-58
2023/05/25 08:16:50;;;;;;;30.77;5.90;;;18.20;1.00;;;;;;4984177;28;20525;-60
2023/05/25 08:19:16;;;;;;;17.70;4.77;;;18.60;1.00;;;;;;4986796;28;20205;-59
2023/05/25 08:21:42;;;;;;;21.47;5.27;;;19.00;1.00;;;;;;4985667;28;20490;-56
2023/05/25 08:24:07;;;;;;;19.27;4.67;;;19.40;1.00;;;;;;4988062;28;20275;-59
2023/05/25 08:26:35;;;;;;;21.47;5.27;;;19.90;1.00;;;;;;4988971;28;20315;-59
2023/05/25 08:29:03;;;;;;;18.90;5.37;;;20.40;1.00;;;;;;4983747;28;20255;-58
2023/05/25 08:31:29;;;;;;;19.17;5.47;;;20.30;1.00;;;;;;4988676;28;20481;-59
2023/05/25 08:33:54;;;;;;;23.07;5.43;;;19.70;1.00;;;;;;4985534;28;20441;-58
2023/05/25 08:36:20;;;;;;;20.57;5.20;;;19.40;1.00;;;;;;4984233;28;20454;-58
2023/05/25 08:38:45;;;;;;;26.60;6.10;;;19.60;1.00;;;;;;4988281;28;20632;-57
2023/05/25 08:41:12;;;;;;;17.30;4.73;;;19.90;1.00;;;;;;4987805;28;20395;-59
2023/05/25 08:43:38;;;;;;;21.43;4.57;;;20.40;1.00;;;;;;4987401;28;20184;-58
2023/05/25 08:46:05;;;;;;;15.07;5.00;;;21.00;1.00;;;;;;4995732;28;20983;-59
2023/05/25 08:48:35;;;;;;;21.47;4.50;;;21.40;1.00;;;;;;4990278;28;20219;-59
2023/05/25 08:51:05;;;;;;;23.57;5.00;;;21.00;1.00;;;;;;4988982;28;20798;-59
2023/05/25 08:53:38;;;;;;;17.37;5.27;;;20.70;1.00;;;;;;4986363;28;20443;-58
2023/05/25 08:56:12;;;;;;;28.60;5.53;;;20.50;1.00;;;;;;4988945;28;20486;-59
2023/05/25 08:59:01;;;;;;;26.67;6.17;;;20.80;1.00;;;;;;4987525;28;20509;-58
2023/05/25 09:01:32;;;;;;;31.67;5.70;;;21.20;1.00;;;;;;4983154;28;21000;-58
2023/05/25 09:04:00;;;;;;;20.90;5.50;;;20.40;1.00;;;;;;4990230;28;20765;-58
2023/05/25 09:06:27;;;;;;;20.10;4.83;;;19.60;1.00;;;;;;4988754;28;20528;-59
2023/05/25 09:08:53;;;;;;;17.17;5.00;;;19.80;1.00;;;;;;4983703;28;20870;-59
2023/05/25 09:11:19;;;;;;;21.23;6.23;;;20.40;1.00;;;;;;4989906;28;20631;-58
2023/05/25 09:13:46;;;;;;;20.83;5.30;;;20.90;1.00;;;;;;4990837;28;20944;-58
2023/05/25 09:16:11;;;;;;;21.63;5.30;;;21.30;1.00;;;;;;4983425;28;20781;-59
2023/05/25 09:18:37;;;;;;;21.50;5.67;;;21.50;1.00;;;;;;4982115;28;20497;-58
2023/05/25 09:21:03;;;;;;;18.40;5.80;;;21.90;1.00;;;;;;4990330;28;20252;-59
2023/05/25 09:23:29;;;;;;;15.50;5.10;;;22.00;1.00;;;;;;4984038;28;20490;-59
2023/05/25 09:25:56;;;;;;;18.50;5.77;;;22.00;1.00;;;;;;4987038;28;20226;-58
2023/05/25 09:28:22;;;;;;;19.43;6.73;;;22.30;1.00;;;;;;4986661;28;20474;-58
2023/05/25 09:30:47;;;;;;;22.30;5.50;;;22.20;1.00;;;;;;4987227;28;20461;-59
2023/05/25 09:33:16;;;;;;;21.00;5.80;;;22.20;1.00;;;;;;4985031;28;20190;-55
2023/05/25 09:35:42;;;;;;;14.90;5.40;;;22.40;1.00;;;;;;4989406;28;20641;-58
2023/05/25 09:38:08;;;;;;;18.13;4.97;;;21.20;1.00;;;;;;4991271;28;20441;-58
2023/05/25 09:40:37;;;;;;;25.17;5.53;;;20.80;1.00;;;;;;4989899;28;20770;-58
2023/05/25 09:43:03;;;;;;;22.10;5.30;;;20.90;1.00;;;;;;4993724;28;20188;-61
2023/05/25 09:45:30;;;;;;;20.97;6.00;;;21.20;1.00;;;;;;4976155;28;21010;-59
2023/05/25 09:47:56;;;;;;;23.60;5.80;;;21.20;1.00;;;;;;4989462;28;20497;-56
2023/05/25 09:50:22;;;;;;;21.97;5.70;;;21.40;1.00;;;;;;4984509;28;20492;-55
2023/05/25 09:52:48;;;;;;;17.00;5.70;;;21.70;1.00;;;;;;4985683;28;20438;-57
2023/05/25 09:55:15;;;;;;;14.20;4.50;;;21.10;99.90;;;;;;4984998;28;20200;-61
2023/05/25 09:57:41;;;;;;;25.83;6.80;;;21.50;1.00;;;;;;5010293;28;20569;-60
2023/05/25 10:00:08;;;;;;;17.00;5.07;;;21.40;1.00;;;;;;5004517;28;20455;-61
2023/05/25 10:02:35;;;;;;;18.80;5.27;;;21.50;99.90;;;;;;5002577;28;20439;-61
2023/05/25 10:05:00;;;;;;;25.03;4.90;;;21.40;99.90;;;;;;5000858;28;20537;-60
2023/05/25 10:07:26;;;;;;;21.33;5.17;;;21.50;99.90;;;;;;5000565;28;20575;-60
2023/05/25 10:09:54;;;;;;;17.47;5.77;;;21.80;99.90;;;;;;5003597;28;20641;-60
2023/05/25 10:12:22;;;;;;;21.30;5.30;;;21.40;99.90;;;;;;5001302;28;20224;-60
2023/05/25 10:14:49;;;;;;;19.83;5.90;;;21.20;99.90;;;;;;5009875;28;20436;-60
2023/05/25 10:17:20;;;;;;;19.13;5.90;;;20.80;99.90;;;;;;5014268;28;20937;-60
2023/05/25 10:19:56;;;;;;;20.10;5.83;;;21.00;99.90;;;;;;5011521;28;20478;-60
2023/05/25 10:22:50;;;;;;;20.73;5.50;;;21.60;99.90;;;;;;5010401;28;20539;-61
2023/05/25 10:25:28;;;;;;;19.67;5.73;;;22.10;99.90;;;;;;5007443;28;20541;-60
2023/05/25 10:28:12;;;;;;;18.13;5.97;;;22.40;99.90;;;;;;5012532;28;20574;-60
2023/05/25 10:30:40;;;;;;;21.13;5.40;;;22.70;99.90;;;;;;5012953;28;20500;-59
2023/05/25 10:33:05;;;;;;;22.50;6.40;;;22.20;99.90;;;;;;5008155;28;20439;-60
2023/05/25 10:35:32;;;;;;;23.00;5.87;;;21.60;99.90;;;;;;5010264;28;20437;-60
2023/05/25 10:37:59;;;;;;;18.73;5.90;;;21.50;99.90;;;;;;5009327;28;20276;-60
2023/05/25 10:40:25;;;;;;;19.00;5.83;;;21.70;99.90;;;;;;5008652;28;20444;-60
2023/05/25 10:42:51;;;;;;;22.90;6.20;;;22.20;99.90;;;;;;5010578;28;20436;-59
2023/05/25 10:45:17;;;;;;;22.70;6.13;;;23.00;99.90;;;;;;5009704;28;20445;-59
2023/05/25 10:47:45;;;;;;;16.27;6.30;;;23.50;99.90;;;;;;5010332;28;20613;-57
2023/05/25 10:50:27;;;;;;;18.63;5.93;;;24.30;99.90;;;;;;5007488;28;20564;-57
2023/05/25 10:53:12;;;;;;;19.10;5.80;;;23.60;99.90;;;;;;5013159;28;20448;-57
2023/05/25 10:55:59;;;;;;;25.70;6.17;;;23.10;99.90;;;;;;5012732;28;20484;-58
2023/05/25 10:58:27;;;;;;;23.97;6.87;;;23.30;99.90;;;;;;5009740;28;20896;-59
2023/05/25 11:01:10;;;;;;;23.03;7.50;;;23.70;99.90;;;;;;5009670;28;20457;-57
2023/05/25 11:03:56;;;;;;;19.47;7.33;;;23.40;99.90;;;;;;5008996;28;20464;-58
2023/05/25 11:06:45;;;;;;;20.60;6.87;;;22.40;99.90;;;;;;5008857;28;20472;-57
2023/05/25 11:09:35;;;;;;;23.33;6.70;;;21.80;99.90;;;;;;4998554;28;20877;-58
2023/05/25 11:12:02;;;;;;;23.57;6.93;;;21.40;99.90;;;;;;5006985;28;20448;-58
2023/05/25 11:14:32;;;;;;;26.50;7.43;;;21.30;99.90;;;;;;5009042;28;20498;-59
2023/05/25 11:17:09;;;;;;;27.17;7.70;;;21.50;99.90;;;;;;5010076;28;20452;-61
2023/05/25 11:19:51;;;;;;;27.47;7.10;;;22.30;99.90;;;;;;5010696;28;20440;-58
2023/05/25 11:22:21;;;;;;;23.27;6.90;;;22.90;99.90;;;;;;5008164;28;20477;-58
2023/05/25 11:24:51;;;;;;;22.23;7.00;;;22.80;99.90;;;;;;5008080;28;20439;-58
2023/05/25 11:27:23;;;;;;;25.57;6.30;;;22.30;99.90;;;;;;5005046;28;20446;-58
2023/05/25 11:29:50;;;;;;;28.50;7.00;;;22.70;99.90;;;;;;5004344;28;20450;-58
2023/05/25 11:32:16;;;;;;;26.47;6.43;;;22.30;99.90;;;;;;5006507;28;20436;-60
2023/05/25 11:34:45;;;;;;;21.33;6.60;;;21.70;99.90;;;;;;5003939;28;20439;-59
2023/05/25 11:37:21;;;;;;;29.03;8.07;;;22.00;99.90;;;;;;5006272;28;20192;-59
2023/05/25 11:39:48;;;;;;;23.20;7.00;;;22.80;99.90;;;;;;5006891;28;20540;-58
2023/05/25 11:42:14;;;;;;;28.67;7.30;;;23.50;99.90;;;;;;5006357;28;20432;-57
2023/05/25 11:44:40;;;;;;;29.20;6.97;;;23.30;99.90;;;;;;5010966;28;20824;-58
2023/05/25 11:47:13;;;;;;;22.33;7.47;;;23.10;99.90;;;;;;5008476;28;20479;-58
2023/05/25 11:49:44;;;;;;;21.53;5.80;;;23.60;99.90;;;;;;5007786;28;20440;-60
2023/05/25 11:52:12;;;;;;;20.40;6.47;;;23.80;99.90;;;;;;5008379;28;20955;-59
2023/05/25 11:54:41;;;;;;;22.30;6.43;;;23.40;99.90;;;;;;5007570;28;20435;-59
2023/05/25 11:57:23;;;;;;;24.47;7.03;;;22.90;99.90;;;;;;5004318;28;20474;-59
2023/05/25 11:59:54;;;;;;;23.83;6.37;;;21.80;99.90;;;;;;5006854;28;21010;-59
2023/05/25 12:02:21;;;;;;;24.83;6.67;;;22.20;99.90;;;;;;5011057;28;20444;-59
2023/05/25 12:04:58;;;;;;;22.10;7.03;;;22.80;99.90;;;;;;5000724;28;20854;-60
2023/05/25 12:07:25;;;;;;;27.73;7.80;;;23.50;99.90;;;;;;5006650;28;20963;-59
2023/05/25 12:09:51;;;;;;;29.20;8.07;;;23.90;99.90;;;;;;5009114;28;20445;-60
2023/05/25 12:12:18;;;;;;;29.67;7.10;;;24.30;99.90;;;;;;5010473;28;20460;-58
2023/05/25 12:14:50;;;;;;;29.67;11.40;;;24.90;99.90;;;;;;5012616;28;20478;-57
2023/05/25 12:17:16;;;;;;;24.20;7.50;;;24.80;99.90;;;;;;5009548;28;20434;-59
2023/05/25 12:19:42;;;;;;;26.87;8.30;;;25.10;99.90;;;;;;5008586;28;20444;-58
2023/05/25 12:22:09;;;;;;;21.83;7.73;;;25.50;99.90;;;;;;5005027;28;20430;-58
2023/05/25 12:24:34;;;;;;;31.50;8.27;;;25.50;99.90;;;;;;5001497;28;20220;-58
2023/05/25 12:27:01;;;;;;;35.40;17.80;;;25.10;99.90;;;;;;5008904;28;20440;-58
2023/05/25 12:29:27;;;;;;;22.87;6.77;;;25.00;99.90;;;;;;5005948;28;20264;-58
2023/05/25 12:32:00;;;;;;;31.13;12.23;;;24.70;99.90;;;;;;5004821;28;20434;-58
2023/05/25 12:34:26;;;;;;;25.17;6.17;;;24.80;99.90;;;;;;5004311;28;20455;-59
2023/05/25 12:36:54;;;;;;;27.87;7.23;;;24.90;99.90;;;;;;5001142;28;20492;-59
2023/05/25 12:39:28;;;;;;;22.10;7.33;;;24.80;99.90;;;;;;5006299;28;20443;-59
2023/05/25 12:41:55;;;;;;;24.30;6.83;;;25.10;99.90;;;;;;5008251;28;20450;-58
2023/05/25 12:44:32;;;;;;;25.13;6.70;;;25.70;99.90;;;;;;5005193;28;20437;-57